Time;durP1;ratioP1;P1;durP2;ratioP2;P2;SDS_P1;SDS_P2;PMS_P1;PMS_P2;Temp;Humidity;BMP_temperature;BMP_pressure;BME280_temperature;BME280_humidity;BME280_pressure;Samples;Min_cycle;Max_cycle;Signal;HPM_P1;HPM_P2
2022/01/29 00:02:22;;;;;;;11.63;3.30;;;;;;;3.30;90.07;102285.00;5075878;28;20257;-49
2022/01/29 00:04:48;;;;;;;11.50;3.30;;;;;;;3.34;89.33;102276.56;5079149;27;20249;-51
2022/01/29 00:07:14;;;;;;;13.20;3.33;;;;;;;3.45;89.52;102276.22;5073252;28;20230;-46
2022/01/29 00:09:43;;;;;;;12.13;3.20;;;;;;;3.46;89.34;102276.31;5079833;27;20267;-51
2022/01/29 00:12:09;;;;;;;12.37;3.60;;;;;;;3.58;88.24;102278.66;5077290;27;20238;-48
2022/01/29 00:14:37;;;;;;;11.40;3.23;;;;;;;3.37;89.39;102274.91;5073483;28;20241;-50
2022/01/29 00:17:04;;;;;;;15.63;3.83;;;;;;;3.50;89.05;102262.66;5090954;27;20229;-49
2022/01/29 00:19:30;;;;;;;12.53;3.23;;;;;;;3.41;88.56;102262.19;5083000;28;20234;-51
2022/01/29 00:21:57;;;;;;;14.53;3.90;;;;;;;3.31;88.95;102263.41;5073114;27;20253;-52
2022/01/29 00:24:24;;;;;;;22.07;3.40;;;;;;;3.41;88.79;102266.50;5079133;28;20265;-50
2022/01/29 00:26:51;;;;;;;13.60;3.73;;;;;;;3.38;89.58;102261.16;5074836;27;20262;-51
2022/01/29 00:29:20;;;;;;;14.53;3.07;;;;;;;3.30;89.91;102246.06;5082163;28;20377;-51
2022/01/29 00:31:48;;;;;;;18.83;7.83;;;;;;;3.29;90.13;102241.66;5074602;27;20283;-50
2022/01/29 00:34:14;;;;;;;16.77;3.40;;;;;;;3.27;89.78;102235.50;5081130;28;20260;-50
2022/01/29 00:36:41;;;;;;;12.33;4.17;;;;;;;3.29;89.87;102238.19;5069176;28;20270;-51
2022/01/29 00:39:07;;;;;;;10.50;2.97;;;;;;;3.33;89.75;102250.50;5082843;27;20238;-50
2022/01/29 00:41:33;;;;;;;15.23;3.40;;;;;;;3.33;89.97;102247.91;5076713;27;20260;-50
2022/01/29 00:44:00;;;;;;;14.33;3.30;;;;;;;3.42;89.32;102244.91;5075623;27;20272;-50
2022/01/29 00:46:26;;;;;;;9.43;3.07;;;;;;;3.42;90.33;102242.31;5076162;28;20249;-51
2022/01/29 00:48:54;;;;;;;8.17;3.17;;;;;;;3.36;89.40;102242.88;5080555;28;20261;-50
2022/01/29 00:51:21;;;;;;;9.67;3.43;;;;;;;3.47;89.36;102235.66;5076602;28;20272;-50
2022/01/29 00:53:47;;;;;;;12.87;3.53;;;;;;;3.39;89.42;102234.38;5076522;28;20261;-51
2022/01/29 00:56:13;;;;;;;9.50;3.10;;;;;;;3.26;90.64;102225.91;5074113;28;20772;-48
2022/01/29 00:58:40;;;;;;;10.67;4.00;;;;;;;3.21;90.48;102230.00;5076175;28;20243;-50
2022/01/29 01:01:07;;;;;;;9.73;3.17;;;;;;;3.18;90.90;102214.25;5078424;28;20236;-51
2022/01/29 01:03:33;;;;;;;18.63;4.07;;;;;;;3.22;91.08;102202.31;5081334;27;20312;-51
2022/01/29 01:06:01;;;;;;;12.57;3.87;;;;;;;3.22;90.57;102203.22;5077550;27;20306;-50
2022/01/29 01:08:27;;;;;;;14.40;3.50;;;;;;;3.25;90.51;102193.00;5075689;28;22801;-50
2022/01/29 01:10:53;;;;;;;16.50;3.57;;;;;;;3.36;89.90;102188.38;5069765;27;20255;-50
2022/01/29 01:13:20;;;;;;;12.90;4.00;;;;;;;3.35;90.64;102169.31;5071670;28;20237;-51
2022/01/29 01:15:46;;;;;;;18.10;3.80;;;;;;;3.29;90.49;102166.38;5081861;27;20307;-48
2022/01/29 01:18:12;;;;;;;9.37;3.43;;;;;;;3.29;90.51;102173.28;5075008;28;20648;-49
2022/01/29 01:20:39;;;;;;;11.67;2.80;;;;;;;3.21;90.83;102175.50;5072079;28;20238;-48
2022/01/29 01:23:06;;;;;;;17.47;3.20;;;;;;;3.33;89.94;102167.44;5076616;27;20353;-48
2022/01/29 01:25:33;;;;;;;12.30;3.27;;;;;;;3.32;90.33;102161.34;5076840;28;20231;-50
2022/01/29 01:27:59;;;;;;;16.07;4.57;;;;;;;3.37;89.77;102146.03;5069669;28;20266;-49
2022/01/29 01:30:26;;;;;;;12.50;3.43;;;;;;;3.33;90.31;102134.63;5080423;28;20287;-50
2022/01/29 01:32:52;;;;;;;16.43;3.50;;;;;;;3.39;90.04;102125.34;5069578;28;20237;-49
2022/01/29 01:35:22;;;;;;;13.17;3.57;;;;;;;3.33;89.68;102112.94;5073768;28;20247;-49
2022/01/29 01:37:53;;;;;;;8.07;2.77;;;;;;;3.31;90.45;102117.16;5078324;27;20874;-50
2022/01/29 01:40:22;;;;;;;13.17;3.20;;;;;;;3.31;90.19;102115.47;5076894;28;20249;-50
2022/01/29 01:42:49;;;;;;;19.60;3.97;;;;;;;3.31;89.66;102107.66;5075684;28;20291;-48
2022/01/29 01:45:15;;;;;;;20.17;3.97;;;;;;;3.40;89.87;102114.13;5074376;28;20227;-48
2022/01/29 01:47:42;;;;;;;17.13;4.03;;;;;;;3.38;89.69;102110.59;5082586;27;20233;-51
2022/01/29 01:50:09;;;;;;;10.00;2.90;;;;;;;3.31;90.04;102104.19;5081448;27;20668;-53
2022/01/29 01:52:36;;;;;;;11.60;3.43;;;;;;;3.27;90.49;102097.94;5081059;28;20226;-50
2022/01/29 01:55:02;;;;;;;7.80;2.80;;;;;;;3.34;90.53;102076.69;5080626;28;20270;-48
2022/01/29 01:57:30;;;;;;;16.50;3.00;;;;;;;3.31;90.19;102066.13;5082774;27;20301;-49
2022/01/29 01:59:57;;;;;;;12.93;4.53;;;;;;;3.30;90.51;102064.38;5078717;27;20330;-50
2022/01/29 02:02:23;;;;;;;10.07;3.23;;;;;;;3.37;90.97;102077.63;5082901;28;20267;-50
2022/01/29 02:04:49;;;;;;;11.10;3.93;;;;;;;3.28;91.54;102067.69;5082875;28;20219;-50
2022/01/29 02:07:17;;;;;;;12.60;4.40;;;;;;;3.19;91.76;102062.03;5080732;28;20234;-50
2022/01/29 02:09:43;;;;;;;11.53;3.50;;;;;;;3.14;91.85;102053.13;5078650;27;20304;-51
2022/01/29 02:12:11;;;;;;;13.63;4.00;;;;;;;3.02;93.22;102036.16;5075421;27;20314;-50
2022/01/29 02:14:40;;;;;;;10.50;3.23;;;;;;;3.06;92.44;102024.22;5081452;27;20260;-50
2022/01/29 02:17:07;;;;;;;15.37;4.27;;;;;;;3.06;94.32;102022.50;5081714;28;20248;-49
2022/01/29 02:19:34;;;;;;;20.00;6.50;;;;;;;2.95;95.32;102025.34;5071424;28;20679;-50
2022/01/29 02:22:02;;;;;;;10.07;4.63;;;;;;;2.80;97.13;102013.38;5078565;27;20917;-50
2022/01/29 02:24:28;;;;;;;9.60;3.37;;;;;;;2.59;98.70;102004.50;5080512;28;20264;-49
2022/01/29 02:26:55;;;;;;;16.33;4.53;;;;;;;2.53;99.49;102001.63;5077832;27;20733;-50
2022/01/29 02:29:21;;;;;;;15.40;2.97;;;;;;;2.57;98.88;102008.75;5078570;27;20260;-49
2022/01/29 02:31:49;;;;;;;7.90;3.40;;;;;;;2.59;99.31;102000.22;5080116;28;20240;-47
2022/01/29 02:37:39;;;;;;;12.23;3.20;;;;;;;2.61;100.00;101998.59;5063358;28;20283;-46
2022/01/29 02:40:07;;;;;;;11.87;3.53;;;;;;;2.59;100.00;102000.22;5065709;28;22241;-49
2022/01/29 02:42:33;;;;;;;12.20;4.03;;;;;;;2.55;100.00;101994.81;5079370;28;20250;-49
2022/01/29 02:44:59;;;;;;;13.37;4.63;;;;;;;2.48;100.00;101995.28;5081456;28;20290;-48
2022/01/29 02:47:30;;;;;;;19.13;4.67;;;;;;;2.37;100.00;101986.97;5081457;28;20264;-50
2022/01/29 02:49:56;;;;;;;13.80;4.67;;;;;;;2.18;100.00;101969.56;5081737;28;20239;-49
2022/01/29 02:52:23;;;;;;;12.40;4.47;;;;;;;2.03;100.00;101972.22;5073233;27;20333;-50
2022/01/29 02:54:50;;;;;;;16.30;4.30;;;;;;;1.96;100.00;101974.41;5071183;28;20254;-49
2022/01/29 02:57:18;;;;;;;18.87;4.27;;;;;;;1.92;100.00;101976.81;5072733;28;20250;-50
2022/01/29 02:59:45;;;;;;;17.87;5.03;;;;;;;1.87;100.00;101967.03;5083045;28;20312;-49
2022/01/29 03:02:11;;;;;;;17.60;5.47;;;;;;;1.83;100.00;101955.63;5077298;28;20319;-50
2022/01/29 03:04:37;;;;;;;18.93;5.27;;;;;;;1.82;100.00;101948.66;5079980;27;20240;-50
2022/01/29 03:07:04;;;;;;;13.10;5.20;;;;;;;1.87;100.00;101942.03;5080456;28;20724;-50
2022/01/29 03:09:30;;;;;;;18.90;5.30;;;;;;;1.78;100.00;101933.75;5082836;27;20310;-50
2022/01/29 03:11:59;;;;;;;17.80;4.80;;;;;;;1.80;100.00;101934.75;5074063;28;20835;-50
2022/01/29 03:14:25;;;;;;;12.10;4.40;;;;;;;1.80;100.00;101929.56;5077323;28;20327;-50
2022/01/29 03:16:51;;;;;;;19.03;6.13;;;;;;;1.75;100.00;101920.66;5080746;28;20298;-53
2022/01/29 03:19:19;;;;;;;15.63;5.47;;;;;;;1.79;100.00;101922.63;5077122;28;20234;-49
2022/01/29 03:21:45;;;;;;;15.60;5.40;;;;;;;1.84;100.00;101920.25;5081104;28;20262;-50
2022/01/29 03:24:11;;;;;;;18.27;6.53;;;;;;;1.78;100.00;101919.94;5076375;28;20729;-50
2022/01/29 03:26:38;;;;;;;13.83;5.20;;;;;;;1.80;100.00;101913.16;5089100;28;20495;-51
2022/01/29 03:29:05;;;;;;;22.40;6.33;;;;;;;1.75;100.00;101899.94;5089613;27;20233;-49
2022/01/29 03:31:32;;;;;;;13.93;5.87;;;;;;;1.75;100.00;101899.94;5086219;28;20309;-50
2022/01/29 03:33:58;;;;;;;27.23;6.63;;;;;;;1.78;100.00;101894.91;5080338;28;20260;-51
2022/01/29 03:36:24;;;;;;;24.03;5.57;;;;;;;1.77;100.00;101894.84;5073076;28;20267;-50
2022/01/29 03:38:51;;;;;;;19.97;6.80;;;;;;;1.71;100.00;101864.34;5081680;28;20233;-51
2022/01/29 03:41:17;;;;;;;17.53;6.40;;;;;;;1.66;100.00;101858.03;5077800;28;20655;-49
2022/01/29 03:43:46;;;;;;;20.63;6.03;;;;;;;1.75;100.00;101861.09;5075320;28;20230;-50
2022/01/29 03:46:14;;;;;;;20.33;6.40;;;;;;;1.70;100.00;101859.97;5076846;28;20283;-49
2022/01/29 03:48:41;;;;;;;22.67;5.13;;;;;;;1.73;100.00;101854.97;5080832;28;20714;-50
2022/01/29 03:51:07;;;;;;;15.13;6.50;;;;;;;1.71;100.00;101841.03;5078512;28;20315;-51
2022/01/29 03:53:33;;;;;;;27.40;7.40;;;;;;;1.70;100.00;101844.44;5079637;28;20979;-53
2022/01/29 03:56:00;;;;;;;25.67;7.93;;;;;;;1.77;100.00;101841.38;5081409;28;20237;-50
2022/01/29 03:58:26;;;;;;;17.73;6.83;;;;;;;1.75;100.00;101835.22;5080362;28;20272;-51
2022/01/29 04:00:52;;;;;;;15.20;6.77;;;;;;;1.75;100.00;101827.44;5080290;27;20972;-51
2022/01/29 04:03:20;;;;;;;19.03;7.00;;;;;;;1.74;100.00;101825.69;5076652;28;20271;-52
2022/01/29 04:05:47;;;;;;;26.77;7.10;;;;;;;1.84;100.00;101827.06;5077731;27;20234;-48
2022/01/29 04:08:16;;;;;;;20.33;7.47;;;;;;;1.81;100.00;101827.78;5074773;28;20261;-51
2022/01/29 04:10:43;;;;;;;21.80;7.60;;;;;;;1.87;100.00;101822.03;5078637;27;20299;-50
2022/01/29 04:13:11;;;;;;;28.27;8.13;;;;;;;1.82;100.00;101807.94;5071016;28;20233;-49
2022/01/29 04:15:38;;;;;;;23.17;8.00;;;;;;;1.89;100.00;101803.16;5081119;28;20549;-51
2022/01/29 04:18:04;;;;;;;28.07;8.47;;;;;;;1.91;100.00;101805.84;5078233;27;20260;-51
2022/01/29 04:20:32;;;;;;;19.77;8.03;;;;;;;1.97;100.00;101792.31;5080366;27;20238;-50
2022/01/29 04:22:58;;;;;;;19.67;8.97;;;;;;;1.95;100.00;101784.47;5081526;28;20236;-51
2022/01/29 04:25:25;;;;;;;23.43;9.27;;;;;;;1.92;100.00;101780.00;5080778;28;20244;-50
2022/01/29 04:27:51;;;;;;;22.40;9.73;;;;;;;1.95;100.00;101781.88;5079472;27;20220;-50
2022/01/29 04:30:27;;;;;;;20.73;9.67;;;;;;;1.94;100.00;101774.94;5080910;28;20221;-51
2022/01/29 04:35:38;;;;;;;23.97;10.60;;;;;;;2.02;100.00;101772.72;5061668;28;20304;-50
2022/01/29 04:38:04;;;;;;;18.67;9.17;;;;;;;2.10;100.00;101763.63;5074419;28;20265;-50
2022/01/29 04:40:30;;;;;;;22.17;10.70;;;;;;;2.04;100.00;101761.63;5072918;28;20237;-49
2022/01/29 04:42:57;;;;;;;20.57;12.07;;;;;;;2.03;100.00;101749.47;5080874;28;20231;-51
2022/01/29 04:45:23;;;;;;;26.00;10.10;;;;;;;2.06;100.00;101740.97;5082412;28;20307;-51
2022/01/29 04:47:49;;;;;;;21.37;10.20;;;;;;;2.08;100.00;101739.34;5088246;27;20237;-49
2022/01/29 04:50:16;;;;;;;23.80;10.40;;;;;;;2.11;100.00;101734.34;5078499;28;20233;-53
2022/01/29 04:52:43;;;;;;;22.50;11.57;;;;;;;2.16;100.00;101727.66;5089206;27;20230;-51
2022/01/29 04:55:10;;;;;;;20.60;10.73;;;;;;;2.15;100.00;101715.53;5092054;27;20713;-51
2022/01/29 04:57:37;;;;;;;23.80;10.80;;;;;;;2.20;100.00;101714.03;5084914;28;20250;-52
2022/01/29 05:00:07;;;;;;;29.57;11.37;;;;;;;2.13;100.00;101711.97;5085031;28;20234;-54
2022/01/29 05:02:33;;;;;;;28.03;11.03;;;;;;;2.09;100.00;101710.03;5088129;28;20229;-52
2022/01/29 05:05:00;;;;;;;28.10;12.27;;;;;;;2.11;100.00;101703.25;5082719;28;20233;-51
2022/01/29 05:07:26;;;;;;;23.50;11.53;;;;;;;2.08;100.00;101692.75;5086175;27;20235;-52
2022/01/29 05:09:54;;;;;;;25.40;11.00;;;;;;;2.09;100.00;101695.38;5082424;27;20241;-52
2022/01/29 05:12:26;;;;;;;28.70;12.03;;;;;;;2.19;100.00;101683.78;5085036;28;20267;-52
2022/01/29 05:15:06;;;;;;;17.53;11.10;;;;;;;2.17;100.00;101677.63;5084006;28;20336;-50
2022/01/29 05:28:32;;;;;;;31.87;13.17;;;;;;;2.16;100.00;101642.19;5076804;28;20244;-52
2022/01/29 05:30:58;;;;;;;21.90;11.67;;;;;;;2.10;100.00;101629.81;5084971;27;20320;-53
2022/01/29 05:33:25;;;;;;;24.33;12.33;;;;;;;2.14;100.00;101630.84;5084804;28;20237;-54
2022/01/29 05:35:51;;;;;;;23.53;12.70;;;;;;;2.17;100.00;101624.94;5082846;28;20275;-54
2022/01/29 05:38:17;;;;;;;19.70;11.40;;;;;;;2.22;100.00;101611.38;5086757;28;20233;-52
2022/01/29 05:40:44;;;;;;;21.80;13.10;;;;;;;2.16;100.00;101605.91;5086011;28;20257;-55
2022/01/29 05:43:12;;;;;;;33.97;13.93;;;;;;;2.14;100.00;101599.75;5082672;28;20233;-60
2022/01/29 05:45:38;;;;;;;27.63;12.30;;;;;;;2.17;100.00;101594.72;5078051;28;20237;-54
2022/01/29 05:48:05;;;;;;;22.57;11.47;;;;;;;2.16;100.00;101590.38;5082699;27;20252;-55
2022/01/29 05:50:32;;;;;;;32.43;13.60;;;;;;;2.10;100.00;101592.66;5084555;28;20298;-55
2022/01/29 05:52:58;;;;;;;21.37;12.37;;;;;;;2.12;100.00;101596.22;5075542;27;20335;-53
2022/01/29 05:55:24;;;;;;;20.13;12.20;;;;;;;2.16;100.00;101580.00;5079496;28;20236;-53
2022/01/29 05:57:51;;;;;;;29.50;12.33;;;;;;;2.11;100.00;101578.91;5076611;27;20235;-56
2022/01/29 06:00:18;;;;;;;24.40;12.57;;;;;;;2.18;100.00;101573.22;5083073;28;20289;-54
2022/01/29 06:02:45;;;;;;;23.83;12.77;;;;;;;2.15;100.00;101565.28;5077538;28;20256;-52
2022/01/29 06:05:11;;;;;;;25.67;12.93;;;;;;;2.18;100.00;101564.53;5087256;28;20238;-55
2022/01/29 06:07:38;;;;;;;26.17;15.17;;;;;;;2.17;100.00;101557.56;5090255;27;20238;-59
2022/01/29 06:10:04;;;;;;;24.93;13.83;;;;;;;2.19;100.00;101554.25;5090594;27;20269;-59
2022/01/29 06:12:31;;;;;;;31.13;13.63;;;;;;;2.24;100.00;101550.16;5091775;28;20296;-58
2022/01/29 06:14:57;;;;;;;21.90;14.07;;;;;;;2.30;100.00;101550.44;5079316;27;20235;-57
2022/01/29 06:17:25;;;;;;;26.00;12.93;;;;;;;2.34;100.00;101547.16;5091807;27;20248;-55
2022/01/29 06:19:52;;;;;;;22.80;13.77;;;;;;;2.27;100.00;101546.81;5088277;28;20235;-55
2022/01/29 06:22:18;;;;;;;24.80;12.73;;;;;;;2.30;100.00;101534.88;5088566;28;20227;-53
2022/01/29 06:24:44;;;;;;;24.57;13.00;;;;;;;2.28;100.00;101525.25;5077624;28;20227;-55
2022/01/29 06:27:11;;;;;;;21.57;12.40;;;;;;;2.29;100.00;101522.75;5086104;28;20287;-55
2022/01/29 06:29:37;;;;;;;29.53;13.87;;;;;;;2.26;100.00;101507.06;5096921;28;20286;-53
2022/01/29 06:32:04;;;;;;;25.13;14.50;;;;;;;2.25;100.00;101502.72;5091699;28;20640;-54
2022/01/29 06:34:32;;;;;;;27.53;14.13;;;;;;;2.23;100.00;101503.47;5091792;28;20297;-53
2022/01/29 06:36:58;;;;;;;33.67;14.93;;;;;;;2.31;100.00;101490.00;5088429;28;20238;-53
2022/01/29 06:39:25;;;;;;;25.60;14.87;;;;;;;2.25;100.00;101500.13;5074799;28;20237;-53
2022/01/29 06:41:51;;;;;;;26.00;13.97;;;;;;;2.30;100.00;101496.03;5084285;27;20245;-53
2022/01/29 06:44:17;;;;;;;23.87;14.80;;;;;;;2.26;100.00;101488.94;5079724;27;20316;-53
2022/01/29 06:46:44;;;;;;;29.37;15.07;;;;;;;2.28;100.00;101492.50;5075546;28;20711;-52
2022/01/29 06:49:10;;;;;;;26.00;14.20;;;;;;;2.29;100.00;101480.44;5080058;27;20273;-51
2022/01/29 06:51:38;;;;;;;21.37;14.10;;;;;;;2.35;100.00;101485.84;5078009;28;20221;-53
2022/01/29 06:54:05;;;;;;;21.73;15.07;;;;;;;2.34;100.00;101479.78;5085880;27;20767;-53
2022/01/29 06:56:31;;;;;;;18.33;14.03;;;;;;;2.42;100.00;101466.28;5084447;28;20260;-52
2022/01/29 06:58:57;;;;;;;23.20;13.67;;;;;;;2.36;100.00;101461.75;5082038;28;20269;-52
2022/01/29 07:01:23;;;;;;;25.53;15.10;;;;;;;2.33;100.00;101452.13;5077274;28;20674;-53
2022/01/29 07:03:50;;;;;;;26.20;14.87;;;;;;;2.41;100.00;101446.38;5070346;28;20259;-54
2022/01/29 07:06:16;;;;;;;26.20;15.17;;;;;;;2.41;100.00;101448.97;5067587;28;20238;-53
2022/01/29 07:08:44;;;;;;;22.47;14.30;;;;;;;2.47;100.00;101446.66;5077353;27;20246;-52
2022/01/29 07:11:10;;;;;;;21.40;14.53;;;;;;;2.44;100.00;101444.81;5080901;28;20236;-53
2022/01/29 07:13:37;;;;;;;23.50;14.70;;;;;;;2.42;100.00;101445.56;5078555;28;20226;-55
2022/01/29 07:16:03;;;;;;;21.60;14.13;;;;;;;2.43;100.00;101436.97;5076701;27;20375;-53
2022/01/29 07:18:29;;;;;;;27.13;15.60;;;;;;;2.57;100.00;101448.81;5078004;28;20238;-52
2022/01/29 07:20:56;;;;;;;23.17;15.50;;;;;;;2.52;100.00;101434.75;5082960;28;20237;-52
2022/01/29 07:23:22;;;;;;;21.20;14.43;;;;;;;2.55;100.00;101421.94;5083422;27;20253;-53
2022/01/29 07:25:50;;;;;;;25.30;15.27;;;;;;;2.56;100.00;101418.53;5082539;28;20298;-54
2022/01/29 07:28:16;;;;;;;27.20;14.87;;;;;;;2.58;100.00;101422.06;5081617;28;20393;-52
2022/01/29 07:30:42;;;;;;;19.93;14.07;;;;;;;2.58;100.00;101403.94;5073680;28;20228;-54
2022/01/29 07:33:09;;;;;;;22.63;13.93;;;;;;;2.60;100.00;101408.38;5083221;27;20241;-53
2022/01/29 07:35:35;;;;;;;23.43;15.87;;;;;;;2.60;100.00;101399.72;5080971;28;20229;-54
2022/01/29 07:38:01;;;;;;;20.67;14.10;;;;;;;2.58;100.00;101396.16;5077224;27;20233;-54
2022/01/29 07:40:28;;;;;;;25.90;14.77;;;;;;;2.59;100.00;101387.53;5072201;28;20313;-53
2022/01/29 07:42:55;;;;;;;25.47;15.33;;;;;;;2.62;100.00;101382.50;5083451;28;20236;-53
2022/01/29 07:45:22;;;;;;;28.17;16.67;;;;;;;2.66;100.00;101363.66;5077345;28;20314;-53
2022/01/29 07:47:48;;;;;;;24.27;15.37;;;;;;;2.69;100.00;101356.00;5071374;28;20302;-54
2022/01/29 07:50:14;;;;;;;24.07;15.03;;;;;;;2.67;100.00;101362.84;5081115;27;20229;-54
2022/01/29 07:52:40;;;;;;;24.87;15.40;;;;;;;2.72;100.00;101363.03;5083150;28;20237;-54
2022/01/29 07:55:08;;;;;;;20.63;13.23;;;;;;;2.86;100.00;101359.28;5078601;27;20225;-53
2022/01/29 07:57:34;;;;;;;26.60;15.07;;;;;;;2.83;100.00;101354.84;5081079;28;20236;-54
2022/01/29 08:00:02;;;;;;;24.07;14.93;;;;;;;2.77;100.00;101339.06;5080723;27;20244;-53
2022/01/29 08:02:28;;;;;;;26.87;16.53;;;;;;;2.82;100.00;101327.16;5079072;27;20660;-51
2022/01/29 08:04:55;;;;;;;20.83;14.10;;;;;;;2.84;100.00;101328.13;5082158;28;20256;-54
2022/01/29 08:07:21;;;;;;;24.00;14.33;;;;;;;2.85;100.00;101324.69;5076798;28;20215;-54
2022/01/29 08:09:47;;;;;;;19.90;13.47;;;;;;;2.87;100.00;101319.56;5078445;28;20305;-55
2022/01/29 08:12:14;;;;;;;22.57;13.10;;;;;;;2.91;100.00;101316.25;5074853;27;20241;-50
2022/01/29 08:14:40;;;;;;;18.43;13.83;;;;;;;2.98;100.00;101322.56;5082229;28;20241;-53
2022/01/29 08:17:08;;;;;;;18.97;15.03;;;;;;;2.96;100.00;101314.75;5078749;27;20259;-52
2022/01/29 08:19:34;;;;;;;19.53;13.37;;;;;;;3.00;100.00;101305.38;5075702;28;20232;-55
2022/01/29 08:22:01;;;;;;;21.07;13.67;;;;;;;3.00;100.00;101319.22;5086816;28;20225;-53
2022/01/29 08:24:27;;;;;;;19.57;14.67;;;;;;;3.09;100.00;101309.22;5087229;28;20667;-52
2022/01/29 08:26:53;;;;;;;26.20;15.50;;;;;;;3.09;100.00;101301.44;5085418;27;20237;-53
2022/01/29 08:29:20;;;;;;;21.20;13.50;;;;;;;3.08;100.00;101301.34;5085824;27;20713;-54
2022/01/29 08:31:46;;;;;;;21.27;13.47;;;;;;;3.13;100.00;101284.25;5087506;28;20248;-53
2022/01/29 08:34:14;;;;;;;18.87;14.10;;;;;;;3.14;100.00;101285.16;5079592;28;20233;-54
2022/01/29 08:36:40;;;;;;;20.93;13.33;;;;;;;3.22;100.00;101282.00;5088939;27;20365;-53
2022/01/29 08:39:07;;;;;;;24.20;15.50;;;;;;;3.19;100.00;101271.50;5088811;27;20245;-53
2022/01/29 08:41:34;;;;;;;22.40;13.87;;;;;;;3.23;100.00;101281.19;5087849;27;20251;-54
2022/01/29 08:44:00;;;;;;;19.87;14.50;;;;;;;3.35;100.00;101276.44;5082343;27;20487;-53
2022/01/29 08:46:26;;;;;;;20.27;13.40;;;;;;;3.31;100.00;101266.78;5081102;28;20264;-53
2022/01/29 08:48:53;;;;;;;21.33;14.83;;;;;;;3.38;100.00;101249.72;5085486;27;20254;-53
2022/01/29 08:51:20;;;;;;;19.10;14.83;;;;;;;3.44;100.00;101251.63;5080439;28;20238;-53
2022/01/29 08:53:47;;;;;;;21.53;14.93;;;;;;;3.51;100.00;101251.94;5073732;28;20892;-53
2022/01/29 08:56:15;;;;;;;24.40;15.10;;;;;;;3.50;100.00;101251.88;5079774;28;20296;-52
2022/01/29 08:58:42;;;;;;;22.23;14.03;;;;;;;3.48;100.00;101243.16;5095665;27;20238;-51
2022/01/29 09:01:09;;;;;;;27.53;15.00;;;;;;;3.61;100.00;101247.94;5093297;28;20232;-53
2022/01/29 09:03:36;;;;;;;21.30;15.10;;;;;;;3.61;100.00;101231.47;5093624;28;20326;-55
2022/01/29 09:06:02;;;;;;;22.60;14.73;;;;;;;3.71;100.00;101213.69;5086512;28;20303;-53
2022/01/29 09:08:30;;;;;;;23.73;14.17;;;;;;;3.70;100.00;101211.91;5098987;27;20284;-52
2022/01/29 09:10:57;;;;;;;19.93;14.50;;;;;;;3.71;100.00;101208.47;5082129;27;20258;-53
2022/01/29 09:13:24;;;;;;;20.53;13.67;;;;;;;3.74;100.00;101205.13;5082073;28;20238;-52
2022/01/29 09:15:50;;;;;;;22.47;15.60;;;;;;;3.76;100.00;101195.69;5090133;28;20787;-54
2022/01/29 09:18:17;;;;;;;22.70;14.23;;;;;;;3.76;100.00;101201.75;5089767;27;20238;-53
2022/01/29 09:20:43;;;;;;;21.30;14.67;;;;;;;3.81;100.00;101191.50;5089095;28;20667;-52
2022/01/29 09:23:10;;;;;;;23.77;14.57;;;;;;;3.82;100.00;101181.16;5087486;27;20249;-51
2022/01/29 09:25:38;;;;;;;22.03;15.03;;;;;;;3.94;100.00;101182.44;5089101;28;20258;-52
2022/01/29 09:28:05;;;;;;;22.23;14.97;;;;;;;3.88;100.00;101182.22;5080354;27;20235;-54
2022/01/29 09:30:32;;;;;;;28.07;16.57;;;;;;;3.87;100.00;101183.06;5082355;27;20643;-53
2022/01/29 09:32:58;;;;;;;21.40;14.90;;;;;;;3.96;100.00;101180.75;5084915;28;20258;-54
2022/01/29 09:35:25;;;;;;;24.40;15.03;;;;;;;4.03;100.00;101164.53;5080896;28;20701;-52
2022/01/29 09:37:52;;;;;;;21.00;14.60;;;;;;;4.12;100.00;101164.81;5081176;28;20258;-52
2022/01/29 09:40:18;;;;;;;22.37;14.93;;;;;;;4.11;100.00;101152.69;5077427;27;20227;-54
2022/01/29 09:42:47;;;;;;;24.57;15.50;;;;;;;4.21;100.00;101133.94;5080890;27;20771;-55
2022/01/29 09:45:15;;;;;;;23.90;16.67;;;;;;;4.24;100.00;101144.41;5082804;28;20235;-55
2022/01/29 09:47:42;;;;;;;24.67;15.73;;;;;;;4.18;100.00;101138.16;5079311;28;20619;-53
2022/01/29 09:50:09;;;;;;;25.83;16.23;;;;;;;4.26;100.00;101113.28;5082534;28;20229;-53
2022/01/29 09:52:35;;;;;;;23.93;15.87;;;;;;;4.28;100.00;101125.50;5079993;28;20241;-55
2022/01/29 09:55:02;;;;;;;22.73;18.30;;;;;;;4.33;100.00;101124.75;5085178;27;20238;-55
2022/01/29 09:57:28;;;;;;;23.60;17.03;;;;;;;4.43;100.00;101129.41;5085715;28;20299;-55
2022/01/29 09:59:56;;;;;;;28.50;18.73;;;;;;;4.37;100.00;101116.22;5086676;28;20237;-54
2022/01/29 10:02:23;;;;;;;28.83;17.43;;;;;;;4.42;100.00;101096.41;5084579;27;20234;-55
2022/01/29 10:04:51;;;;;;;26.93;18.23;;;;;;;4.54;100.00;101084.69;5077703;28;20261;-52
2022/01/29 10:07:19;;;;;;;28.07;19.33;;;;;;;4.63;100.00;101112.66;5081115;27;20264;-53
2022/01/29 10:09:46;;;;;;;28.63;17.63;;;;;;;4.60;100.00;101096.06;5085036;28;20230;-53
2022/01/29 10:12:20;;;;;;;23.87;18.67;;;;;;;4.59;100.00;101105.59;5085924;28;20242;-54
2022/01/29 10:14:48;;;;;;;29.90;18.37;;;;;;;4.63;100.00;101097.03;5081411;27;20230;-53
2022/01/29 10:17:44;;;;;;;24.73;17.47;;;;;;;4.70;100.00;101103.31;5086427;28;20295;-53
2022/01/29 10:20:14;;;;;;;31.53;20.23;;;;;;;4.70;100.00;101099.00;5085199;28;20283;-54
2022/01/29 10:22:40;;;;;;;30.60;19.80;;;;;;;4.78;100.00;101091.44;5088516;27;20237;-52
2022/01/29 10:25:08;;;;;;;31.53;20.53;;;;;;;4.77;100.00;101090.56;5092350;27;20231;-52
2022/01/29 10:27:34;;;;;;;25.90;18.60;;;;;;;4.75;100.00;101093.94;5092188;27;20300;-52
2022/01/29 10:30:02;;;;;;;28.87;18.53;;;;;;;4.83;100.00;101073.34;5090919;27;20230;-53
2022/01/29 10:32:30;;;;;;;26.83;17.23;;;;;;;4.87;100.00;101069.97;5092140;27;21312;-51
2022/01/29 10:34:58;;;;;;;29.97;19.97;;;;;;;4.92;100.00;101064.06;5086192;28;20223;-55
2022/01/29 10:37:26;;;;;;;28.87;18.60;;;;;;;4.90;100.00;101075.25;5081659;27;20238;-51
2022/01/29 10:39:54;;;;;;;30.60;19.20;;;;;;;4.96;100.00;101071.13;5079243;28;20921;-51
2022/01/29 10:42:24;;;;;;;30.33;19.20;;;;;;;5.02;100.00;101060.00;5080471;28;20237;-50
2022/01/29 10:44:52;;;;;;;24.57;17.00;;;;;;;5.07;100.00;101063.59;5082861;28;20231;-50
2022/01/29 10:47:19;;;;;;;28.07;20.50;;;;;;;4.99;100.00;101054.72;5096276;28;20235;-49
2022/01/29 10:49:54;;;;;;;24.40;18.30;;;;;;;5.01;100.00;101055.63;5096660;27;20226;-50
2022/01/29 10:52:28;;;;;;;30.33;17.60;;;;;;;5.07;100.00;101053.19;5085812;28;20329;-50
2022/01/29 10:54:59;;;;;;;23.77;17.60;;;;;;;5.12;100.00;101037.69;5079281;28;20484;-53
2022/01/29 10:57:31;;;;;;;21.10;16.33;;;;;;;5.23;100.00;101049.28;5091954;27;20250;-49
2022/01/29 10:59:58;;;;;;;24.77;17.43;;;;;;;5.22;100.00;101043.16;5089359;28;20296;-50
2022/01/29 11:02:27;;;;;;;24.80;17.97;;;;;;;5.32;100.00;101043.41;5098555;28;20239;-49
2022/01/29 11:04:55;;;;;;;23.33;17.13;;;;;;;5.34;100.00;101042.59;5105118;28;20226;-50
2022/01/29 11:07:27;;;;;;;27.60;18.37;;;;;;;5.30;100.00;101032.97;5104091;28;20230;-51
2022/01/29 11:09:54;;;;;;;23.33;16.90;;;;;;;5.43;100.00;101022.00;5093889;28;20231;-49
2022/01/29 11:12:22;;;;;;;21.37;16.03;;;;;;;5.41;100.00;101015.00;5088054;28;20237;-50
2022/01/29 11:14:50;;;;;;;22.53;16.83;;;;;;;5.42;100.00;101011.56;5081796;27;20321;-50
2022/01/29 11:17:18;;;;;;;20.10;16.30;;;;;;;5.49;100.00;101011.72;5085892;27;20298;-50
2022/01/29 11:19:45;;;;;;;19.43;14.00;;;;;;;5.59;100.00;101002.41;5080480;28;20240;-50
2022/01/29 11:22:13;;;;;;;23.17;17.03;;;;;;;5.57;100.00;100998.88;5095274;28;20253;-48
2022/01/29 11:24:41;;;;;;;20.80;15.47;;;;;;;5.61;100.00;100995.50;5096723;28;20230;-57
2022/01/29 11:27:25;;;;;;;21.20;15.27;;;;;;;5.63;100.00;101004.25;5095939;28;20299;-50
2022/01/29 11:29:59;;;;;;;17.97;14.13;;;;;;;5.58;100.00;101000.66;5094312;28;20648;-52
2022/01/29 11:32:38;;;;;;;19.57;14.37;;;;;;;5.74;100.00;100987.13;5084580;27;20230;-52